Time;durP1;ratioP1;P1;durP2;ratioP2;P2;SDS_P1;SDS_P2;PMS_P1;PMS_P2;Temp;Humidity;BMP_temperature;BMP_pressure;BME280_temperature;BME280_humidity;BME280_pressure;Samples;Min_cycle;Max_cycle;Signal;HPM_P1;HPM_P2
2023/07/30 00:01:35;;;;;;;1.63;1.30;;;;;;;22.97;63.08;98278.16;6893038;28;20652;-82
2023/07/30 00:04:56;;;;;;;1.73;1.47;;;;;;;22.89;63.32;98281.59;6893167;28;20239;-83
2023/07/30 00:08:18;;;;;;;3.93;1.70;;;;;;;22.84;63.42;98287.97;6891831;28;20258;-83
2023/07/30 00:11:41;;;;;;;2.47;1.50;;;;;;;22.85;62.23;98269.56;6892233;28;20376;-82
2023/07/30 00:15:03;;;;;;;1.50;1.40;;;;;;;22.43;62.56;98262.13;6891541;28;20213;-82
2023/07/30 00:18:24;;;;;;;3.00;1.07;;;;;;;22.64;62.89;98279.19;6891192;28;20255;-82
2023/07/30 00:21:46;;;;;;;2.77;1.47;;;;;;;22.52;62.83;98254.88;6891398;28;20710;-82
2023/07/30 00:25:09;;;;;;;1.40;1.20;;;;;;;22.70;62.80;98278.81;6904531;28;20582;-82
2023/07/30 00:28:32;;;;;;;1.60;1.50;;;;;;;22.97;62.24;98297.41;6917566;28;20213;-82
2023/07/30 00:31:53;;;;;;;1.40;1.30;;;;;;;23.13;61.68;98288.63;6918604;28;20286;-82
2023/07/30 00:35:15;;;;;;;1.53;1.40;;;;;;;23.19;62.21;98292.97;6919104;28;20231;-82
2023/07/30 00:38:36;;;;;;;2.97;1.60;;;;;;;23.11;62.48;98301.06;6918364;28;20385;-82
2023/07/30 00:41:58;;;;;;;5.23;1.90;;;;;;;23.10;63.20;98296.66;6919026;28;20316;-82
2023/07/30 00:45:21;;;;;;;2.30;1.80;;;;;;;22.91;63.45;98290.34;6919190;28;20257;-82
2023/07/30 00:48:42;;;;;;;1.93;1.80;;;;;;;22.44;65.27;98295.94;6919045;28;20204;-82
2023/07/30 00:52:05;;;;;;;2.13;1.80;;;;;;;22.87;64.87;98322.28;6919503;28;20319;-82
2023/07/30 00:55:26;;;;;;;3.70;2.37;;;;;;;22.93;64.12;98318.38;6918727;28;20204;-83
2023/07/30 00:58:49;;;;;;;2.73;1.70;;;;;;;23.10;63.53;98324.19;6918376;28;20257;-82
2023/07/30 01:02:12;;;;;;;2.90;1.90;;;;;;;23.07;64.27;98309.09;6894053;28;20784;-82
2023/07/30 01:05:34;;;;;;;1.90;1.70;;;;;;;23.29;63.14;98295.59;6891123;28;20297;-83
2023/07/30 01:08:56;;;;;;;3.67;1.90;;;;;;;23.30;62.82;98310.16;6890055;28;20276;-83
2023/07/30 01:12:17;;;;;;;2.90;1.97;;;;;;;22.87;64.58;98312.13;6890628;28;20260;-83
2023/07/30 01:15:39;;;;;;;2.23;2.03;;;;;;;22.88;64.60;98294.50;6889815;28;20200;-81
2023/07/30 01:19:04;;;;;;;2.00;1.80;;;;;;;23.03;64.31;98309.97;6889864;28;20323;-83
2023/07/30 01:22:27;;;;;;;3.13;2.53;;;;;;;22.78;64.82;98322.13;6889930;28;20232;-83
2023/07/30 01:25:50;;;;;;;3.73;2.00;;;;;;;22.63;64.88;98297.63;6889520;28;20208;-83
2023/07/30 01:29:15;;;;;;;2.63;1.90;;;;;;;22.62;65.61;98317.97;6892338;28;20266;-83
2023/07/30 01:32:37;;;;;;;4.50;2.27;;;;;;;22.16;66.33;98329.72;6894774;28;20200;-83
2023/07/30 01:35:59;;;;;;;3.13;2.23;;;;;;;22.76;65.71;98332.63;6893877;28;20216;-83
2023/07/30 01:39:22;;;;;;;4.50;2.77;;;;;;;22.95;64.73;98299.66;6894709;28;20298;-83
2023/07/30 01:42:44;;;;;;;6.00;2.90;;;;;;;23.09;64.68;98330.78;6887293;28;20208;-83
2023/07/30 01:46:05;;;;;;;2.40;2.20;;;;;;;23.19;64.69;98327.94;6893915;28;20272;-83
2023/07/30 01:49:27;;;;;;;3.07;2.83;;;;;;;23.48;63.43;98336.84;6894860;28;20309;-83
2023/07/30 01:52:48;;;;;;;4.73;2.57;;;;;;;22.83;65.45;98355.06;6895173;28;20303;-83
2023/07/30 01:56:11;;;;;;;3.77;2.43;;;;;;;22.75;66.34;98358.47;6894314;28;20240;-83
2023/07/30 01:59:32;;;;;;;4.47;3.03;;;;;;;22.44;66.44;98265.72;6894261;28;20260;-83
2023/07/30 02:02:54;;;;;;;6.37;3.60;;;;;;;23.12;66.11;98343.97;6894491;28;20221;-83
2023/07/30 02:06:15;;;;;;;4.33;3.00;;;;;;;23.15;65.92;98344.19;6893234;28;20289;-83
2023/07/30 02:09:37;;;;;;;4.37;2.77;;;;;;;23.35;65.07;98345.84;6893923;28;20290;-83
2023/07/30 02:13:00;;;;;;;3.00;2.70;;;;;;;23.17;65.50;98346.66;6894401;28;20233;-83
2023/07/30 02:16:21;;;;;;;4.90;3.13;;;;;;;23.47;64.98;98337.94;6893127;28;20759;-83
2023/07/30 02:19:43;;;;;;;3.00;2.70;;;;;;;23.41;64.27;98339.13;6893364;28;20694;-81
2023/07/30 02:23:04;;;;;;;2.87;2.60;;;;;;;23.16;65.39;98332.09;6893825;28;20347;-83
2023/07/30 02:26:27;;;;;;;3.23;2.80;;;;;;;23.28;65.05;98331.63;6892381;28;20205;-83
2023/07/30 02:29:50;;;;;;;4.37;2.90;;;;;;;23.49;63.86;98328.25;6893499;28;20290;-83
2023/07/30 02:33:11;;;;;;;3.47;2.23;;;;;;;23.27;64.54;98314.34;6893644;28;20300;-81
2023/07/30 02:36:32;;;;;;;3.40;2.90;;;;;;;22.90;65.67;98328.03;6892855;28;20360;-84
2023/07/30 02:39:54;;;;;;;3.47;2.50;;;;;;;22.88;65.72;98337.66;6893962;28;20228;-82
2023/07/30 02:43:15;;;;;;;3.20;2.80;;;;;;;22.96;66.43;98328.78;6894470;28;20216;-82
2023/07/30 02:46:38;;;;;;;4.10;2.50;;;;;;;22.95;66.31;98338.94;6893936;28;20346;-82
2023/07/30 02:50:00;;;;;;;4.87;2.90;;;;;;;22.85;67.04;98350.09;6895110;28;20228;-82
2023/07/30 02:53:21;;;;;;;5.53;3.40;;;;;;;22.20;68.62;98348.06;6894611;28;20243;-82
2023/07/30 02:56:44;;;;;;;3.70;3.40;;;;;;;22.96;67.50;98350.78;6893062;28;20764;-81
2023/07/30 03:00:08;;;;;;;4.30;3.20;;;;;;;23.24;65.92;98352.63;6892536;28;20234;-81
2023/07/30 03:03:31;;;;;;;3.17;2.60;;;;;;;23.05;66.38;98357.25;6893568;28;20187;-81
2023/07/30 03:06:52;;;;;;;3.50;3.20;;;;;;;23.30;65.70;98355.00;6892873;28;20207;-81
2023/07/30 03:10:14;;;;;;;4.20;3.00;;;;;;;23.04;66.45;98347.34;6893674;28;20714;-81
2023/07/30 03:13:35;;;;;;;3.63;3.33;;;;;;;23.04;66.53;98339.94;6893699;28;20217;-81
2023/07/30 03:16:57;;;;;;;4.23;3.10;;;;;;;23.16;66.11;98359.59;6892114;28;20229;-82
2023/07/30 03:20:20;;;;;;;4.10;3.70;;;;;;;23.21;66.29;98347.69;6892436;28;20273;-81
2023/07/30 03:23:44;;;;;;;3.33;3.03;;;;;;;23.37;65.71;98358.19;6891921;28;20221;-81
2023/07/30 03:27:06;;;;;;;3.37;3.07;;;;;;;23.42;65.21;98355.34;6891624;28;20573;-81
2023/07/30 03:30:28;;;;;;;5.63;3.60;;;;;;;23.28;65.68;98351.72;6892190;28;20222;-81
2023/07/30 03:33:49;;;;;;;5.60;4.20;;;;;;;23.14;65.97;98358.22;6892291;28;20239;-81
2023/07/30 03:37:12;;;;;;;4.97;3.70;;;;;;;23.28;65.72;98359.16;6891741;28;20232;-81
2023/07/30 03:40:33;;;;;;;6.63;5.27;;;;;;;23.14;65.60;98361.78;6891618;28;20355;-82
2023/07/30 03:43:55;;;;;;;5.90;5.30;;;;;;;23.08;65.99;98365.72;6892025;28;20764;-81
2023/07/30 03:47:16;;;;;;;5.63;4.60;;;;;;;23.12;65.95;98361.28;6891707;28;20349;-81
2023/07/30 03:50:38;;;;;;;6.07;5.03;;;;;;;22.98;66.00;98343.03;6889066;28;20760;-82
2023/07/30 03:54:01;;;;;;;7.90;5.83;;;;;;;23.01;66.54;98367.22;6892549;28;20741;-83
2023/07/30 03:57:22;;;;;;;7.90;5.60;;;;;;;23.04;66.13;98367.44;6891825;28;20602;-82
2023/07/30 04:00:44;;;;;;;7.37;5.20;;;;;;;23.12;66.20;98383.28;6892857;28;20274;-82
2023/07/30 04:04:05;;;;;;;7.43;5.77;;;;;;;23.00;66.49;98358.13;6899081;28;20241;-83
2023/07/30 04:07:27;;;;;;;6.83;5.87;;;;;;;23.06;66.34;98376.22;6906252;28;20212;-82
2023/07/30 04:10:50;;;;;;;7.63;5.73;;;;;;;23.27;66.23;98391.34;6906688;28;20276;-81
2023/07/30 04:14:11;;;;;;;5.97;5.03;;;;;;;23.30;66.03;98385.25;6918831;28;20731;-80
2023/07/30 04:17:33;;;;;;;5.67;4.57;;;;;;;23.18;65.85;98389.56;6913556;28;20316;-81
2023/07/30 04:20:55;;;;;;;5.50;5.00;;;;;;;23.13;66.56;98382.16;6910005;28;20230;-80
2023/07/30 04:24:17;;;;;;;5.20;4.50;;;;;;;23.59;65.85;98390.63;6892836;28;20581;-81
2023/07/30 04:27:40;;;;;;;7.50;4.90;;;;;;;23.73;64.96;98391.50;6889760;28;20280;-81
2023/07/30 04:31:01;;;;;;;5.03;4.57;;;;;;;23.58;65.11;98372.44;6900602;28;20272;-80
2023/07/30 04:34:23;;;;;;;6.77;4.70;;;;;;;23.64;65.71;98399.59;6921975;28;20208;-80
2023/07/30 04:37:44;;;;;;;5.33;4.63;;;;;;;23.78;65.09;98408.72;6920430;28;20325;-81
2023/07/30 04:41:06;;;;;;;4.77;4.27;;;;;;;23.81;65.04;98410.06;6921883;28;20319;-81
2023/07/30 04:44:29;;;;;;;5.47;4.43;;;;;;;23.71;65.49;98418.50;6918509;28;20207;-82
2023/07/30 04:47:50;;;;;;;6.07;4.30;;;;;;;23.75;64.89;98409.34;6916903;28;20257;-81
2023/07/30 04:51:12;;;;;;;7.73;4.67;;;;;;;23.54;65.38;98405.25;6918128;28;20237;-82
2023/07/30 04:54:33;;;;;;;5.17;4.67;;;;;;;23.55;66.04;98417.09;6918044;28;20206;-81
2023/07/30 04:57:55;;;;;;;4.60;4.20;;;;;;;23.11;67.00;98411.06;6907655;28;20227;-81
2023/07/30 05:01:17;;;;;;;5.53;4.60;;;;;;;23.44;66.45;98418.34;6890155;28;20236;-81
2023/07/30 05:04:39;;;;;;;5.47;4.40;;;;;;;23.53;65.98;98413.81;6894997;28;20210;-81
2023/07/30 05:08:00;;;;;;;11.40;5.70;;;;;;;23.72;66.09;98423.69;6895068;28;20329;-81
2023/07/30 05:11:22;;;;;;;5.37;4.10;;;;;;;23.73;65.84;98422.56;6895624;28;20283;-81
2023/07/30 05:14:44;;;;;;;5.27;4.00;;;;;;;23.63;65.69;98400.72;6896934;28;20217;-81
2023/07/30 05:18:06;;;;;;;7.83;4.50;;;;;;;23.71;66.25;98418.50;6897342;28;20254;-81
2023/07/30 05:21:28;;;;;;;5.13;4.50;;;;;;;23.81;66.01;98423.84;6894487;28;20381;-81
2023/07/30 05:24:49;;;;;;;5.17;4.67;;;;;;;23.69;66.09;98426.22;6895821;28;20268;-81
2023/07/30 05:28:11;;;;;;;5.53;4.40;;;;;;;23.84;66.25;98426.00;6892845;28;20270;-82
2023/07/30 05:31:33;;;;;;;5.90;4.50;;;;;;;23.96;65.85;98437.41;6895172;28;20629;-82
2023/07/30 05:34:55;;;;;;;5.07;4.20;;;;;;;23.89;65.76;98432.28;6894732;28;20697;-80
2023/07/30 05:38:17;;;;;;;8.30;4.40;;;;;;;23.84;66.07;98429.56;6893174;28;20235;-81
2023/07/30 05:41:39;;;;;;;5.73;4.03;;;;;;;23.51;66.94;98427.88;6894502;28;20289;-81
2023/07/30 05:45:00;;;;;;;4.83;4.40;;;;;;;23.49;67.34;98429.28;6893241;28;20280;-81
2023/07/30 05:48:22;;;;;;;4.57;3.50;;;;;;;23.62;67.12;98431.28;6893620;28;20267;-82
2023/07/30 05:51:45;;;;;;;4.53;4.00;;;;;;;23.80;66.38;98422.19;6892460;28;20226;-82
2023/07/30 05:55:07;;;;;;;6.13;4.30;;;;;;;23.75;66.36;98436.88;6893998;28;20257;-81
2023/07/30 05:58:28;;;;;;;6.67;4.63;;;;;;;23.98;66.07;98426.91;6893481;28;20365;-81
2023/07/30 06:01:50;;;;;;;4.63;4.20;;;;;;;23.98;66.14;98436.00;6893900;28;20322;-81
2023/07/30 06:05:11;;;;;;;5.00;4.60;;;;;;;24.04;65.62;98429.28;6893062;28;20301;-81
2023/07/30 06:08:34;;;;;;;5.87;4.10;;;;;;;24.30;65.17;98440.69;6890918;28;20668;-82
2023/07/30 06:11:56;;;;;;;4.73;4.27;;;;;;;24.19;65.49;98433.72;6891653;28;20229;-81
2023/07/30 06:15:18;;;;;;;4.47;4.07;;;;;;;23.67;64.79;98362.41;6890976;28;20734;-82
2023/07/30 06:18:40;;;;;;;6.27;4.07;;;;;;;24.11;64.74;98440.72;6890850;28;20710;-81
2023/07/30 06:22:01;;;;;;;4.80;4.40;;;;;;;24.09;65.68;98442.16;6890818;28;20315;-81
2023/07/30 06:25:24;;;;;;;4.63;3.83;;;;;;;23.67;66.47;98448.53;6891114;28;20276;-82
2023/07/30 06:28:46;;;;;;;4.50;3.50;;;;;;;23.47;65.44;98347.03;6890379;28;20740;-81
2023/07/30 06:32:08;;;;;;;4.83;3.50;;;;;;;24.05;65.00;98452.94;6891413;28;20315;-82
2023/07/30 06:35:29;;;;;;;3.70;3.40;;;;;;;24.28;64.49;98448.44;6890041;28;20286;-81
2023/07/30 06:38:51;;;;;;;4.80;3.47;;;;;;;24.03;63.98;98438.66;6890297;28;20285;-81
2023/07/30 06:42:14;;;;;;;4.80;3.93;;;;;;;24.64;63.47;98438.44;6893232;28;20265;-81
2023/07/30 06:45:35;;;;;;;4.40;4.00;;;;;;;25.00;62.95;98445.72;6893427;28;20633;-81
2023/07/30 06:48:56;;;;;;;3.97;3.57;;;;;;;24.48;63.51;98437.88;6889850;28;20420;-81
2023/07/30 06:52:19;;;;;;;4.43;3.50;;;;;;;24.32;63.56;98446.72;6890230;28;20321;-81
2023/07/30 06:55:40;;;;;;;4.23;3.43;;;;;;;24.88;62.64;98467.47;6890080;28;20216;-81
2023/07/30 06:59:04;;;;;;;3.67;3.37;;;;;;;25.06;62.96;98474.00;6889970;28;20317;-81
2023/07/30 07:02:25;;;;;;;4.00;3.63;;;;;;;25.27;60.78;98497.34;6809332;28;2369933;-81
2023/07/30 07:05:53;;;;;;;3.47;3.17;;;;;;;25.00;62.39;98473.31;6891005;28;20362;-81
2023/07/30 07:09:15;;;;;;;4.87;2.80;;;;;;;24.89;60.61;98396.59;6891346;28;20613;-81
2023/07/30 07:12:37;;;;;;;2.60;2.40;;;;;;;25.83;59.67;98470.97;6891425;28;20617;-82
2023/07/30 07:16:00;;;;;;;3.07;2.60;;;;;;;25.82;58.80;98480.38;6890290;28;20211;-82
2023/07/30 07:19:21;;;;;;;3.70;2.93;;;;;;;25.32;60.28;98483.44;6891110;28;20235;-81
2023/07/30 07:22:43;;;;;;;3.00;2.80;;;;;;;25.32;60.19;98464.94;6891178;28;20626;-82
2023/07/30 07:26:04;;;;;;;3.10;2.83;;;;;;;25.32;59.89;98484.25;6894631;28;20203;-82
2023/07/30 07:29:26;;;;;;;2.77;2.57;;;;;;;24.63;59.82;98384.41;6892256;28;20329;-81
2023/07/30 07:32:50;;;;;;;3.37;3.07;;;;;;;25.26;60.15;98481.91;6891026;28;20622;-82
2023/07/30 07:36:14;;;;;;;3.30;2.60;;;;;;;25.24;60.86;98496.03;6890241;28;20214;-81
2023/07/30 07:39:35;;;;;;;2.90;2.70;;;;;;;25.39;60.63;98498.47;6891111;28;20230;-82
2023/07/30 07:42:56;;;;;;;2.97;2.60;;;;;;;25.42;60.33;98499.81;6890312;28;20737;-81
2023/07/30 07:46:18;;;;;;;3.53;2.90;;;;;;;25.34;60.54;98472.91;6889471;28;20758;-82
2023/07/30 07:49:41;;;;;;;2.80;2.60;;;;;;;25.39;59.54;98497.66;6890048;28;20226;-82
2023/07/30 07:53:02;;;;;;;2.50;2.30;;;;;;;25.20;59.48;98506.00;6883530;28;20207;-82
2023/07/30 07:56:24;;;;;;;2.50;2.30;;;;;;;24.85;61.52;98523.25;6916450;28;20215;-82
2023/07/30 07:59:46;;;;;;;2.40;2.20;;;;;;;24.14;61.27;98514.50;6917070;28;20267;-82
2023/07/30 08:03:08;;;;;;;2.53;2.33;;;;;;;23.81;62.88;98556.00;6916948;28;20227;-82
2023/07/30 08:06:32;;;;;;;5.40;2.50;;;;;;;23.09;62.41;98537.06;6916242;28;20740;-82
2023/07/30 08:09:54;;;;;;;2.10;1.90;;;;;;;23.11;61.68;98504.56;6917088;28;20311;-82
2023/07/30 08:13:16;;;;;;;2.30;2.10;;;;;;;23.85;61.04;98540.53;6916941;28;20375;-82
2023/07/30 08:16:37;;;;;;;3.10;2.20;;;;;;;24.01;60.93;98526.28;6915948;28;20268;-81
2023/07/30 08:19:59;;;;;;;2.20;2.10;;;;;;;24.41;60.07;98516.53;6916751;28;20228;-82
2023/07/30 08:23:21;;;;;;;2.73;2.00;;;;;;;23.86;61.65;98504.44;6920799;28;20352;-81
2023/07/30 08:26:43;;;;;;;4.33;2.50;;;;;;;24.26;60.73;98527.84;6919465;28;20225;-82
2023/07/30 08:30:06;;;;;;;2.17;1.97;;;;;;;24.55;60.33;98531.22;6926272;28;20639;-83
2023/07/30 08:33:27;;;;;;;2.27;2.07;;;;;;;24.64;60.50;98516.47;6931884;28;20198;-82
2023/07/30 08:36:49;;;;;;;2.70;2.47;;;;;;;24.95;60.33;98520.28;6921133;28;20292;-81
2023/07/30 08:40:12;;;;;;;2.20;2.00;;;;;;;24.79;59.47;98509.84;6919816;28;20237;-81
2023/07/30 08:43:34;;;;;;;2.47;2.00;;;;;;;25.25;59.47;98516.97;6919842;28;20262;-81
2023/07/30 08:46:55;;;;;;;2.63;2.00;;;;;;;24.99;59.73;98520.50;6918616;28;20219;-82
2023/07/30 08:50:17;;;;;;;2.83;2.20;;;;;;;25.18;59.47;98526.78;6919112;28;20384;-81
2023/07/30 08:53:38;;;;;;;2.50;2.07;;;;;;;25.32;57.33;98453.09;6898910;28;20368;-81
2023/07/30 08:57:01;;;;;;;2.00;1.90;;;;;;;25.54;55.73;98508.38;6890599;28;20203;-82
2023/07/30 09:00:25;;;;;;;2.50;2.30;;;;;;;25.34;58.00;98506.03;6874680;28;20241;-82
2023/07/30 09:03:49;;;;;;;1.77;1.67;;;;;;;25.92;57.19;98507.81;6891008;28;20201;-81
2023/07/30 09:07:12;;;;;;;2.20;2.00;;;;;;;24.84;57.34;98484.94;6890382;28;20296;-83
2023/07/30 09:10:33;;;;;;;3.20;2.23;;;;;;;25.61;57.93;98519.81;6893637;28;20369;-81
2023/07/30 09:13:57;;;;;;;2.97;2.03;;;;;;;25.58;57.84;98465.19;6882985;28;20299;-81
2023/07/30 09:17:19;;;;;;;3.00;2.10;;;;;;;25.51;57.52;98523.63;6880496;28;20304;-80
2023/07/30 09:20:42;;;;;;;2.23;2.00;;;;;;;25.68;56.61;98509.16;6892059;28;20321;-80
2023/07/30 09:24:06;;;;;;;3.60;1.90;;;;;;;25.62;56.54;98524.22;6890506;28;20219;-80
2023/07/30 09:27:28;;;;;;;2.10;2.00;;;;;;;25.51;56.81;98512.56;6889659;28;20207;-81
2023/07/30 09:30:51;;;;;;;3.17;2.20;;;;;;;25.82;55.67;98496.13;6890321;28;20318;-83
2023/07/30 09:34:16;;;;;;;2.50;2.23;;;;;;;25.60;56.04;98463.75;6891374;28;20305;-81
2023/07/30 09:37:39;;;;;;;2.63;2.40;;;;;;;26.05;55.11;98472.97;6889707;28;20311;-81
2023/07/30 09:41:03;;;;;;;2.67;2.17;;;;;;;25.89;56.22;98532.47;6888509;28;20234;-81
2023/07/30 09:44:25;;;;;;;3.07;2.30;;;;;;;25.82;55.21;98534.81;6889404;28;20728;-81
2023/07/30 09:47:49;;;;;;;2.80;2.50;;;;;;;25.56;54.79;98509.72;6888494;28;20314;-81
2023/07/30 09:51:10;;;;;;;2.97;2.20;;;;;;;25.00;54.85;98546.94;6890311;28;20312;-80
2023/07/30 09:54:32;;;;;;;3.83;2.63;;;;;;;25.30;54.80;98541.72;6894430;28;20352;-80
2023/07/30 09:57:54;;;;;;;2.60;2.40;;;;;;;25.63;54.19;98557.06;6892993;28;20358;-80
2023/07/30 10:01:15;;;;;;;2.80;2.40;;;;;;;25.38;53.90;98521.69;6889598;28;20229;-80
2023/07/30 10:04:43;;;;;;;2.47;2.27;;;;;;;26.09;52.89;98559.66;6893407;28;20253;-81
2023/07/30 10:08:10;;;;;;;2.27;2.10;;;;;;;25.37;51.58;98533.03;6892633;28;20336;-80
2023/07/30 10:11:32;;;;;;;2.40;2.20;;;;;;;25.78;52.30;98553.94;6891463;28;20231;-81
2023/07/30 10:14:53;;;;;;;3.50;2.37;;;;;;;26.09;51.84;98566.00;6887966;28;20602;-81
2023/07/30 10:18:15;;;;;;;4.20;2.30;;;;;;;26.12;50.62;98559.84;6892762;28;20296;-81
2023/07/30 10:21:43;;;;;;;2.47;2.27;;;;;;;25.70;51.15;98560.22;6899532;28;20295;-81
2023/07/30 10:25:07;;;;;;;4.20;2.30;;;;;;;25.62;50.39;98584.97;6893112;28;20326;-81
2023/07/30 10:28:33;;;;;;;2.40;2.20;;;;;;;25.99;49.91;98588.34;6893504;28;20236;-81
2023/07/30 10:31:55;;;;;;;2.63;2.43;;;;;;;25.51;48.77;98573.31;6897541;28;20222;-81
2023/07/30 10:35:41;;;;;;;3.33;2.50;;;;;;;25.66;49.18;98575.75;6894305;28;20398;-80
2023/07/30 10:39:13;;;;;;;3.03;2.07;;;;;;;25.93;47.65;98564.72;6891874;28;20281;-81
2023/07/30 10:42:35;;;;;;;2.67;2.30;;;;;;;25.87;45.67;98496.03;6884605;28;20235;-80
2023/07/30 10:45:56;;;;;;;3.47;2.33;;;;;;;26.87;43.86;98563.56;6891931;28;20206;-81
2023/07/30 10:49:18;;;;;;;4.07;2.70;;;;;;;27.10;42.93;98567.09;6892795;28;20262;-80
2023/07/30 10:52:39;;;;;;;2.70;2.27;;;;;;;27.89;41.58;98544.66;6892407;28;20208;-80
2023/07/30 10:56:03;;;;;;;3.63;2.40;;;;;;;27.16;42.01;98541.78;6891398;28;20343;-80
2023/07/30 10:59:25;;;;;;;2.50;2.30;;;;;;;26.98;42.05;98555.81;6891839;28;20282;-81
2023/07/30 11:02:54;;;;;;;3.80;2.60;;;;;;;27.58;41.76;98563.28;6891295;28;20352;-80
2023/07/30 11:06:22;;;;;;;2.40;2.20;;;;;;;28.31;40.68;98534.75;6891190;28;20326;-81
2023/07/30 11:09:44;;;;;;;2.87;2.10;;;;;;;28.91;39.34;98566.84;6892512;28;20323;-80
2023/07/30 11:13:06;;;;;;;2.43;2.23;;;;;;;28.26;39.68;98570.97;6893247;28;20271;-80
2023/07/30 11:16:28;;;;;;;4.33;2.10;;;;;;;28.04;39.88;98569.16;6889300;28;20205;-80
2023/07/30 11:19:49;;;;;;;3.03;2.70;;;;;;;27.49;40.34;98578.25;6893035;28;20349;-81
2023/07/30 11:23:21;;;;;;;2.40;2.20;;;;;;;27.24;40.93;98582.53;6890773;28;20363;-81
2023/07/30 11:26:43;;;;;;;2.57;2.37;;;;;;;25.78;42.24;98504.22;6892098;28;20574;-82
2023/07/30 11:30:07;;;;;;;3.73;2.93;;;;;;;26.57;41.27;98580.94;6893305;28;20227;-82
2023/07/30 11:33:29;;;;;;;3.90;2.27;;;;;;;26.70;41.77;98581.97;6893885;28;20262;-81
2023/07/30 11:36:51;;;;;;;4.33;2.83;;;;;;;26.25;42.12;98541.59;6892176;28;20288;-81
2023/07/30 11:40:13;;;;;;;2.83;2.50;;;;;;;26.44;42.68;98592.84;6894399;28;20231;-83
2023/07/30 11:43:36;;;;;;;3.33;2.50;;;;;;;25.83;44.59;98598.03;6894261;28;20266;-82
2023/07/30 11:46:59;;;;;;;3.63;2.33;;;;;;;24.54;47.03;98604.81;6898721;28;20303;-81
2023/07/30 11:50:21;;;;;;;2.97;2.20;;;;;;;25.11;46.19;98611.88;6903586;28;20281;-82
2023/07/30 11:53:47;;;;;;;5.20;2.40;;;;;;;26.21;44.42;98601.38;6904027;28;20301;-83
2023/07/30 11:57:09;;;;;;;2.40;2.20;;;;;;;26.53;42.80;98615.00;6896136;28;20224;-84
2023/07/30 12:00:32;;;;;;;3.50;2.17;;;;;;;27.37;40.69;98602.97;6891336;28;20259;-83
2023/07/30 12:03:57;;;;;;;2.57;2.10;;;;;;;27.58;40.91;98618.69;6890019;28;20267;-84
2023/07/30 12:07:23;;;;;;;3.37;2.30;;;;;;;27.77;40.61;98624.81;6890715;28;20240;-82
2023/07/30 12:10:47;;;;;;;2.43;1.87;;;;;;;27.10;41.12;98616.94;6891538;28;20442;-84
2023/07/30 12:14:08;;;;;;;2.53;1.90;;;;;;;27.79;40.80;98611.44;6891723;28;20209;-82
2023/07/30 12:17:30;;;;;;;2.40;2.20;;;;;;;28.11;40.61;98613.00;6890215;28;20350;-83
2023/07/30 12:20:54;;;;;;;2.13;1.90;;;;;;;27.89;39.61;98600.06;6891239;28;20399;-83
2023/07/30 12:24:15;;;;;;;4.90;2.10;;;;;;;27.49;39.66;98605.94;6890777;28;20350;-85
2023/07/30 12:27:37;;;;;;;3.87;2.23;;;;;;;28.13;39.32;98578.28;6891455;28;20260;-84
2023/07/30 12:30:58;;;;;;;3.77;2.00;;;;;;;28.79;38.52;98579.78;6895447;28;20311;-84
2023/07/30 12:34:20;;;;;;;2.60;2.23;;;;;;;27.16;41.07;98601.84;6895941;28;20272;-83
2023/07/30 12:37:43;;;;;;;2.00;1.90;;;;;;;27.75;40.05;98582.75;6894392;28;20296;-84
2023/07/30 12:41:04;;;;;;;3.20;2.10;;;;;;;28.37;39.12;98602.81;6892078;28;20264;-83
2023/07/30 12:44:26;;;;;;;2.37;2.03;;;;;;;28.29;38.60;98562.81;6891955;28;20206;-86
2023/07/30 12:47:48;;;;;;;3.83;2.13;;;;;;;27.86;38.96;98613.75;6892384;28;20215;-83
2023/07/30 12:51:09;;;;;;;3.10;2.10;;;;;;;27.25;39.13;98553.69;6891717;28;20707;-86
2023/07/30 12:54:32;;;;;;;2.40;2.20;;;;;;;28.53;38.38;98604.78;6891088;28;20208;-87
2023/07/30 12:57:53;;;;;;;2.40;2.20;;;;;;;28.11;39.25;98547.28;6895805;28;20280;-84
2023/07/30 13:01:15;;;;;;;2.80;2.27;;;;;;;27.65;38.66;98618.25;6894993;28;20315;-84
2023/07/30 13:04:37;;;;;;;5.43;2.13;;;;;;;27.72;39.60;98621.34;6893770;28;20236;-85
2023/07/30 13:07:58;;;;;;;2.20;2.00;;;;;;;27.60;40.66;98624.72;6894821;28;20220;-84
2023/07/30 13:11:21;;;;;;;3.90;2.47;;;;;;;27.65;40.07;98632.88;6896001;28;20322;-84
2023/07/30 13:14:43;;;;;;;4.10;2.20;;;;;;;27.02;40.15;98617.69;6898385;28;20222;-83
2023/07/30 13:18:04;;;;;;;4.47;2.30;;;;;;;27.71;39.53;98628.84;6893743;28;20301;-83
2023/07/30 13:21:26;;;;;;;5.23;2.40;;;;;;;27.89;39.59;98586.22;6896016;28;20287;-84
2023/07/30 13:24:47;;;;;;;2.53;2.20;;;;;;;28.06;38.66;98636.16;6898068;28;20278;-84
2023/07/30 13:28:11;;;;;;;2.77;2.10;;;;;;;28.46;37.58;98575.88;6900751;28;21359;-84
2023/07/30 13:31:33;;;;;;;2.27;2.00;;;;;;;29.08;36.97;98629.91;6892827;28;20858;-85
2023/07/30 13:34:54;;;;;;;2.50;2.10;;;;;;;28.74;37.33;98604.94;6892864;28;20276;-85
2023/07/30 13:38:16;;;;;;;4.33;2.03;;;;;;;29.08;35.79;98586.28;6891743;28;20301;-89
2023/07/30 13:41:37;;;;;;;3.53;1.90;;;;;;;29.73;35.23;98622.06;6892110;28;20298;-85
2023/07/30 13:45:01;;;;;;;2.13;2.03;;;;;;;28.94;36.71;98616.19;6892222;28;20214;-84
2023/07/30 13:48:22;;;;;;;3.33;1.77;;;;;;;29.27;36.02;98616.47;6891131;28;20316;-85
2023/07/30 13:51:44;;;;;;;1.97;1.77;;;;;;;28.95;36.31;98633.66;6891786;28;20275;-84
2023/07/30 13:55:06;;;;;;;4.33;2.17;;;;;;;28.79;37.58;98625.00;6891309;28;20271;-86
2023/07/30 13:58:28;;;;;;;2.07;1.83;;;;;;;28.89;36.75;98632.19;6890583;28;20343;-86
2023/07/30 14:01:50;;;;;;;2.20;1.93;;;;;;;28.25;36.59;98630.34;6890902;28;20279;-86
2023/07/30 14:05:13;;;;;;;4.37;2.10;;;;;;;28.20;37.59;98645.16;6887514;28;20205;-85
2023/07/30 14:08:34;;;;;;;2.63;2.20;;;;;;;28.22;37.31;98645.66;6889965;28;20201;-84
2023/07/30 14:11:56;;;;;;;3.27;2.00;;;;;;;27.75;38.19;98660.31;6891393;28;20393;-84
2023/07/30 14:15:17;;;;;;;3.30;2.20;;;;;;;27.61;38.00;98661.56;6891396;28;20213;-85
2023/07/30 14:18:40;;;;;;;3.23;2.03;;;;;;;26.87;37.74;98571.03;6890176;28;20208;-85
2023/07/30 14:22:02;;;;;;;3.07;1.83;;;;;;;27.68;37.74;98659.97;6890504;28;20270;-85
2023/07/30 14:25:24;;;;;;;4.80;2.10;;;;;;;27.50;37.99;98661.03;6890088;28;20239;-86
2023/07/30 14:28:45;;;;;;;3.63;2.07;;;;;;;27.20;38.00;98670.09;6890162;28;20215;-85
2023/07/30 14:32:07;;;;;;;1.77;1.67;;;;;;;27.03;38.41;98663.63;6889733;28;20269;-85
2023/07/30 14:35:30;;;;;;;3.93;2.20;;;;;;;27.67;37.62;98671.38;6883433;28;20220;-85
2023/07/30 14:38:52;;;;;;;3.37;2.00;;;;;;;27.33;37.09;98657.34;6888988;28;21045;-84
2023/07/30 14:42:13;;;;;;;4.23;2.10;;;;;;;27.17;37.09;98678.22;6889404;28;20274;-85
2023/07/30 14:45:35;;;;;;;2.50;1.80;;;;;;;27.06;37.12;98680.41;6889984;28;20212;-83
2023/07/30 14:48:57;;;;;;;2.57;1.77;;;;;;;27.27;37.51;98676.03;6871555;28;20262;-84
2023/07/30 14:52:20;;;;;;;2.03;1.70;;;;;;;27.67;36.36;98668.59;6864854;28;20702;-83
2023/07/30 14:55:42;;;;;;;3.83;2.20;;;;;;;27.90;35.91;98654.38;6890489;28;20224;-84
2023/07/30 14:59:03;;;;;;;2.90;2.10;;;;;;;27.39;36.09;98700.38;6890773;28;20615;-85
2023/07/30 15:02:25;;;;;;;5.33;1.70;;;;;;;27.33;36.98;98685.84;6889279;28;20328;-86
2023/07/30 15:05:48;;;;;;;4.80;1.90;;;;;;;27.32;36.88;98689.72;6878442;28;20718;-85
2023/07/30 15:09:11;;;;;;;2.50;1.87;;;;;;;27.19;35.96;98689.81;6882143;28;20243;-85
2023/07/30 15:12:32;;;;;;;6.43;2.33;;;;;;;26.33;36.94;98660.56;6889700;28;20290;-84
2023/07/30 15:15:54;;;;;;;1.90;1.70;;;;;;;26.79;36.18;98690.78;6886181;28;20557;-86
2023/07/30 15:19:15;;;;;;;2.70;1.93;;;;;;;26.61;36.06;98694.53;6886325;28;20261;-85
2023/07/30 15:22:37;;;;;;;2.27;1.93;;;;;;;26.68;36.34;98701.28;6888014;28;20235;-85
2023/07/30 15:25:59;;;;;;;3.17;2.20;;;;;;;26.46;36.22;98650.56;6886410;28;20815;-86
2023/07/30 15:29:21;;;;;;;3.03;1.57;;;;;;;26.58;36.29;98706.19;6889164;28;20689;-83
2023/07/30 15:32:44;;;;;;;2.43;2.20;;;;;;;26.64;35.69;98669.81;6889776;28;20204;-85
2023/07/30 15:36:06;;;;;;;5.30;1.80;;;;;;;26.76;35.76;98710.75;6889068;28;20295;-85
2023/07/30 15:39:28;;;;;;;2.43;1.60;;;;;;;26.67;34.96;98699.59;6891646;28;20207;-84
2023/07/30 15:42:51;;;;;;;3.33;2.00;;;;;;;26.68;35.83;98690.19;6890111;28;20218;-85
2023/07/30 15:46:12;;;;;;;3.17;2.37;;;;;;;26.97;36.32;98678.72;6888612;28;20629;-84
2023/07/30 15:49:35;;;;;;;2.50;1.77;;;;;;;27.20;35.98;98688.69;6889763;28;20281;-85
2023/07/30 15:52:57;;;;;;;3.63;2.10;;;;;;;26.31;35.03;98646.19;6873709;28;20352;-85